createdAt,value
2023-04-23T00:00:27.922Z,12.50
2023-04-23T00:02:56.589Z,7.40
2023-04-23T00:05:27.489Z,9.40
2023-04-23T00:07:55.961Z,8.10
2023-04-23T00:10:25.408Z,9.40
2023-04-23T00:12:54.026Z,10.10
2023-04-23T00:15:22.848Z,10.00
2023-04-23T00:17:53.853Z,10.50
2023-04-23T00:20:23.242Z,7.50
2023-04-23T00:22:51.812Z,7.80
2023-04-23T00:25:20.534Z,8.90
2023-04-23T00:27:49.195Z,7.60
2023-04-23T00:30:19.980Z,7.30
2023-04-23T00:32:48.979Z,13.10
2023-04-23T00:35:18.710Z,11.80
2023-04-23T00:37:47.908Z,10.80
2023-04-23T00:40:16.561Z,10.70
2023-04-23T00:42:45.350Z,9.00
2023-04-23T00:45:14.250Z,7.70
2023-04-23T00:47:42.642Z,9.90
2023-04-23T00:50:13.461Z,10.80
2023-04-23T00:52:41.921Z,8.50
2023-04-23T00:55:10.356Z,8.50
2023-04-23T00:57:38.999Z,8.50
2023-04-23T01:00:08.256Z,10.80
2023-04-23T01:02:39.397Z,9.10
2023-04-23T01:05:09.394Z,10.60
2023-04-23T01:07:39.103Z,7.60
2023-04-23T01:10:08.106Z,9.20
2023-04-23T01:12:36.953Z,10.90
2023-04-23T01:15:06.356Z,7.80
2023-04-23T01:17:35.373Z,13.00
2023-04-23T01:20:06.821Z,11.50
2023-04-23T01:22:38.330Z,9.30
2023-04-23T01:25:10.474Z,8.90
2023-04-23T01:27:39.406Z,10.80
2023-04-23T01:30:08.966Z,7.70
2023-04-23T01:32:38.061Z,7.60
2023-04-23T01:35:09.313Z,7.70
2023-04-23T01:37:37.837Z,9.20
2023-04-23T01:40:09.182Z,9.60
2023-04-23T01:42:37.608Z,14.30
2023-04-23T01:45:08.256Z,10.60
2023-04-23T01:47:40.005Z,7.70
2023-04-23T01:50:11.022Z,10.70
2023-04-23T01:52:40.684Z,10.20
2023-04-23T01:55:09.774Z,8.70
2023-04-23T01:57:38.793Z,14.40
2023-04-23T02:00:12.998Z,10.80
2023-04-23T02:02:42.813Z,9.40
2023-04-23T02:05:13.380Z,9.30
2023-04-23T02:07:43.984Z,13.40
2023-04-23T02:10:12.702Z,12.00
2023-04-23T02:12:45.060Z,12.00
2023-04-23T02:15:14.769Z,19.10
2023-04-23T02:17:43.257Z,11.10
2023-04-23T02:20:11.982Z,10.10
2023-04-23T02:22:44.442Z,10.50
2023-04-23T02:25:15.809Z,10.20
2023-04-23T02:27:45.374Z,8.80
2023-04-23T02:30:14.008Z,9.50
2023-04-23T02:32:43.254Z,11.30
2023-04-23T02:35:12.667Z,11.70
2023-04-23T02:37:43.463Z,8.40
2023-04-23T02:40:19.112Z,10.90
2023-04-23T02:42:47.427Z,13.50
2023-04-23T02:45:16.032Z,10.30
2023-04-23T02:47:46.092Z,11.90
2023-04-23T02:50:14.571Z,14.40
2023-04-23T02:52:44.332Z,9.00
2023-04-23T02:55:14.803Z,9.80
2023-04-23T02:57:45.517Z,8.20
2023-04-23T03:00:15.329Z,7.70
2023-04-23T03:02:45.567Z,6.40
2023-04-23T03:05:14.749Z,13.00
2023-04-23T03:07:43.527Z,10.70
2023-04-23T03:10:12.642Z,7.70
2023-04-23T03:12:41.542Z,6.50
2023-04-23T03:15:11.820Z,8.20
2023-04-23T03:17:40.735Z,13.90
2023-04-23T03:20:15.269Z,8.90
2023-04-23T03:22:44.379Z,11.50
2023-04-23T03:25:16.763Z,16.10
2023-04-23T03:27:46.861Z,8.70
2023-04-23T03:30:15.257Z,28.20
2023-04-23T03:32:45.298Z,24.40
2023-04-23T03:35:18.033Z,14.20
2023-04-23T03:37:51.750Z,19.80
2023-04-23T03:40:21.127Z,10.00
2023-04-23T03:42:53.307Z,6.50
2023-04-23T03:45:31.303Z,8.50
2023-04-23T03:48:03.196Z,7.30
2023-04-23T03:50:39.152Z,12.50
2023-04-23T03:53:18.317Z,9.90
2023-04-23T03:56:19.185Z,6.60
2023-04-23T03:58:57.781Z,8.60
2023-04-23T04:01:26.611Z,12.10
2023-04-23T04:03:55.642Z,8.40
2023-04-23T04:06:26.599Z,9.60
2023-04-23T04:09:02.353Z,8.40
2023-04-23T04:11:32.883Z,9.90
2023-04-23T04:14:01.379Z,6.90
2023-04-23T04:16:30.236Z,7.40
2023-04-23T04:18:58.777Z,5.40
2023-04-23T04:21:28.447Z,12.50
2023-04-23T04:23:57.399Z,5.50
2023-04-23T04:26:25.658Z,9.10
2023-04-23T04:28:54.141Z,14.10
2023-04-23T04:31:22.466Z,13.10
2023-04-23T04:33:51.218Z,15.10
2023-04-23T04:36:19.896Z,12.30
2023-04-23T04:38:48.543Z,14.30
2023-04-23T04:41:17.230Z,10.80
2023-04-23T04:43:47.384Z,11.00
2023-04-23T04:46:15.801Z,9.60
2023-04-23T04:48:44.178Z,13.40
2023-04-23T04:51:12.576Z,10.80
2023-04-23T04:53:41.337Z,9.70
2023-04-23T04:56:09.666Z,10.80
2023-04-23T04:58:38.359Z,15.40
2023-04-23T05:01:08.287Z,13.60
2023-04-23T05:03:37.878Z,17.00
2023-04-23T05:06:07.027Z,11.70
2023-04-23T05:08:35.931Z,10.80
2023-04-23T05:11:04.625Z,15.20
2023-04-23T05:13:34.434Z,13.40
2023-04-23T05:16:04.732Z,13.50
2023-04-23T05:18:33.345Z,10.40
2023-04-23T05:21:09.135Z,17.30
2023-04-23T05:23:48.213Z,7.80
2023-04-23T05:28:47.011Z,11.50
2023-04-23T05:31:16.583Z,19.40
2023-04-23T05:33:50.499Z,19.90
2023-04-23T05:36:19.296Z,10.50
2023-04-23T05:38:48.007Z,82.80
2023-04-23T05:41:16.403Z,51.00
2023-04-23T05:43:45.109Z,24.10
2023-04-23T05:46:14.476Z,15.90
2023-04-23T05:48:43.952Z,24.40
2023-04-23T05:51:13.355Z,17.40
2023-04-23T05:53:42.535Z,11.00
2023-04-23T05:56:14.825Z,13.70
2023-04-23T05:58:43.432Z,15.10
2023-04-23T06:01:11.898Z,12.70
2023-04-23T06:03:45.748Z,12.50
2023-04-23T06:06:17.052Z,12.00
2023-04-23T06:08:46.277Z,20.90
2023-04-23T06:11:16.802Z,15.80
2023-04-23T06:13:47.225Z,11.20
2023-04-23T06:16:16.614Z,19.60
2023-04-23T06:18:45.327Z,13.60
2023-04-23T06:21:14.913Z,16.70
2023-04-23T06:23:44.143Z,21.60
2023-04-23T06:26:12.529Z,12.00
2023-04-23T06:28:47.267Z,11.70
2023-04-23T06:31:28.273Z,12.20
2023-04-23T06:33:57.197Z,17.00
2023-04-23T06:36:26.679Z,12.80
2023-04-23T06:38:56.469Z,11.50
2023-04-23T06:41:24.974Z,14.30
2023-04-23T06:44:06.650Z,12.10
2023-04-23T06:46:43.387Z,14.00
2023-04-23T06:49:14.673Z,15.40
2023-04-23T06:51:44.397Z,8.90
2023-04-23T06:54:13.327Z,9.30
2023-04-23T06:56:41.909Z,13.80
2023-04-23T06:59:10.644Z,11.20
2023-04-23T07:01:48.987Z,11.30
2023-04-23T07:04:17.809Z,21.90
2023-04-23T07:06:46.321Z,16.70
2023-04-23T07:09:16.382Z,11.80
2023-04-23T07:11:45.528Z,14.20
2023-04-23T07:14:15.831Z,9.60
2023-04-23T07:16:44.802Z,9.90
2023-04-23T07:19:13.373Z,8.00
2023-04-23T07:21:42.410Z,12.90
2023-04-23T07:24:11.502Z,5.90
2023-04-23T07:26:40.281Z,10.70
2023-04-23T07:29:10.868Z,11.20
2023-04-23T07:31:41.840Z,6.50
2023-04-23T07:34:10.290Z,6.40
2023-04-23T07:36:38.676Z,11.50
2023-04-23T07:39:07.113Z,8.70
2023-04-23T07:41:35.950Z,8.10
2023-04-23T07:44:04.800Z,14.10
2023-04-23T07:46:34.118Z,5.90
2023-04-23T07:49:02.699Z,7.70
2023-04-23T07:51:32.214Z,9.40
2023-04-23T07:54:01.137Z,10.80
2023-04-23T07:56:32.776Z,13.10
2023-04-23T07:59:01.361Z,9.80
2023-04-23T08:01:30.172Z,6.00
2023-04-23T08:04:00.985Z,7.80
2023-04-23T08:06:35.367Z,13.40
2023-04-23T08:09:07.766Z,5.70
2023-04-23T08:11:37.149Z,5.50
2023-04-23T08:14:06.855Z,7.50
2023-04-23T08:16:38.801Z,15.00
2023-04-23T08:19:07.821Z,12.20
2023-04-23T08:21:37.654Z,10.10
2023-04-23T08:24:08.062Z,6.40
2023-04-23T08:26:40.766Z,4.90
2023-04-23T08:29:11.001Z,3.80
2023-04-23T08:31:41.886Z,4.50
2023-04-23T08:34:10.354Z,8.90
2023-04-23T08:36:40.402Z,4.30
2023-04-23T08:39:09.490Z,4.90
2023-04-23T08:41:43.112Z,3.40
2023-04-23T08:44:18.782Z,9.00
2023-04-23T08:46:47.434Z,4.80
2023-04-23T08:49:17.733Z,3.60
2023-04-23T08:51:55.367Z,4.40
2023-04-23T08:54:27.866Z,8.40
2023-04-23T08:57:00.017Z,6.10
2023-04-23T08:59:31.145Z,6.30
2023-04-23T09:02:02.037Z,3.20
2023-04-23T09:04:31.912Z,5.10
2023-04-23T09:07:01.849Z,8.90
2023-04-23T09:09:30.725Z,12.80
2023-04-23T09:11:59.114Z,5.80
2023-04-23T09:14:30.856Z,6.50
2023-04-23T09:16:59.586Z,3.60
2023-04-23T09:19:28.582Z,7.50
2023-04-23T09:22:02.213Z,12.10
2023-04-23T09:24:30.812Z,4.10
2023-04-23T09:26:59.324Z,3.30
2023-04-23T09:29:28.692Z,4.50
2023-04-23T09:32:08.499Z,6.20
2023-04-23T09:34:40.431Z,9.20
2023-04-23T09:37:11.191Z,3.80
2023-04-23T09:39:40.743Z,3.20
2023-04-23T09:42:12.855Z,4.50
2023-04-23T09:44:41.506Z,7.60
2023-04-23T09:47:10.305Z,6.70
2023-04-23T09:49:50.872Z,4.30
2023-04-23T09:52:23.587Z,2.50
2023-04-23T09:54:52.065Z,8.30
2023-04-23T09:57:20.538Z,3.20
2023-04-23T09:59:53.118Z,4.00
2023-04-23T10:02:29.627Z,4.70
2023-04-23T10:05:10.053Z,4.80
2023-04-23T10:07:45.835Z,2.30
2023-04-23T10:10:15.297Z,3.30
2023-04-23T10:13:07.723Z,7.20
2023-04-23T10:15:38.182Z,4.20
2023-04-23T10:18:07.236Z,2.60
2023-04-23T10:20:36.203Z,4.20
2023-04-23T10:23:05.309Z,7.90
2023-04-23T10:25:36.587Z,3.90
2023-04-23T10:28:08.698Z,6.70
2023-04-23T10:30:37.227Z,4.30
2023-04-23T10:33:18.793Z,5.60
2023-04-23T10:35:57.509Z,8.80
2023-04-23T10:38:28.465Z,4.60
2023-04-23T10:40:57.469Z,2.70
2023-04-23T10:43:27.744Z,3.20
2023-04-23T10:45:56.952Z,3.60
2023-04-23T10:48:28.681Z,4.80
2023-04-23T10:51:17.430Z,4.60
2023-04-23T10:53:48.451Z,2.20
2023-04-23T10:56:19.341Z,3.00
2023-04-23T10:58:50.817Z,5.20
2023-04-23T11:01:22.343Z,5.10
2023-04-23T11:03:52.168Z,5.70
2023-04-23T11:07:00.944Z,1.90
2023-04-23T11:09:49.301Z,2.80
2023-04-23T11:12:21.189Z,5.30
2023-04-23T11:14:54.950Z,4.70
2023-04-23T11:17:24.334Z,2.80
2023-04-23T11:20:14.263Z,5.30
2023-04-23T11:22:44.226Z,1.80
2023-04-23T11:25:19.839Z,4.00
2023-04-23T11:27:51.147Z,6.70
2023-04-23T11:32:52.236Z,7.40
2023-04-23T11:35:23.410Z,6.00
2023-04-23T11:37:51.998Z,4.20
2023-04-23T11:40:21.091Z,3.30
2023-04-23T11:42:54.053Z,3.30
2023-04-23T11:45:22.445Z,5.60
2023-04-23T11:47:57.840Z,3.10
2023-04-23T11:50:33.338Z,1.90
2023-04-23T11:53:07.534Z,3.10
2023-04-23T11:55:36.385Z,6.20
2023-04-23T11:58:04.906Z,2.20
2023-04-23T12:00:36.094Z,2.00
2023-04-23T12:03:06.645Z,9.50
2023-04-23T12:05:37.651Z,3.80
2023-04-23T12:08:33.241Z,3.70
2023-04-23T12:11:06.407Z,2.80
2023-04-23T12:13:35.273Z,2.10
2023-04-23T12:16:05.058Z,3.70
2023-04-23T12:18:41.654Z,2.70
2023-04-23T12:21:14.185Z,2.90
2023-04-23T12:23:51.975Z,3.00
2023-04-23T12:26:21.613Z,5.00
2023-04-23T12:28:53.969Z,3.20
2023-04-23T12:31:27.302Z,5.30
2023-04-23T12:34:20.541Z,8.50
2023-04-23T12:36:53.362Z,11.20
2023-04-23T12:39:32.245Z,4.20
2023-04-23T12:42:07.557Z,3.30
2023-04-23T12:44:38.510Z,6.00
2023-04-23T12:47:08.844Z,3.10
2023-04-23T12:49:40.306Z,2.00
2023-04-23T12:52:10.915Z,3.50
2023-04-23T12:54:44.926Z,6.30
2023-04-23T12:57:14.580Z,3.10
2023-04-23T12:59:45.391Z,2.60
2023-04-23T13:02:14.057Z,5.10
2023-04-23T13:04:47.237Z,3.70
2023-04-23T13:07:19.084Z,2.80
2023-04-23T13:09:48.172Z,4.00
2023-04-23T13:12:17.756Z,2.50
2023-04-23T13:14:46.183Z,3.40
2023-04-23T13:17:15.571Z,5.60
2023-04-23T13:19:45.026Z,7.00
2023-04-23T13:22:15.832Z,5.80
2023-04-23T13:24:44.252Z,2.50
2023-04-23T13:27:12.720Z,9.90
2023-04-23T13:29:41.611Z,3.10
2023-04-23T13:32:11.346Z,3.40
2023-04-23T13:34:39.749Z,4.70
2023-04-23T13:37:10.007Z,10.70
2023-04-23T13:39:41.488Z,3.10
2023-04-23T13:42:10.559Z,4.60
2023-04-23T13:44:39.111Z,4.30
2023-04-23T13:47:09.341Z,4.10
2023-04-23T13:49:37.844Z,2.50
2023-04-23T13:52:07.417Z,3.20
2023-04-23T13:54:36.356Z,6.20
2023-04-23T13:57:06.226Z,4.00
2023-04-23T14:02:06.081Z,5.00
2023-04-23T14:04:35.634Z,4.80
2023-04-23T14:07:06.654Z,3.40
2023-04-23T14:09:36.755Z,8.50
2023-04-23T14:12:06.323Z,3.00
2023-04-23T14:14:35.524Z,7.60
2023-04-23T14:17:03.912Z,8.60
2023-04-23T14:19:36.380Z,12.50
2023-04-23T14:22:06.910Z,18.80
2023-04-23T14:24:40.546Z,11.40
2023-04-23T14:27:09.317Z,6.30
2023-04-23T14:29:41.801Z,9.90
2023-04-23T14:32:10.747Z,14.70
2023-04-23T14:41:17.478Z,4.20
2023-04-23T14:43:44.695Z,11.30
2023-04-23T14:46:11.843Z,4.10
2023-04-23T14:48:39.697Z,3.90
2023-04-23T14:51:07.158Z,5.60
2023-04-23T14:53:34.335Z,3.50
2023-04-23T14:56:01.613Z,3.60
2023-04-23T14:58:30.113Z,5.90
2023-04-23T15:00:58.981Z,6.10
2023-04-23T15:03:27.987Z,12.00
2023-04-23T15:05:55.472Z,17.20
2023-04-23T15:08:23.607Z,17.60
2023-04-23T15:10:51.971Z,11.60
2023-04-23T15:13:41.601Z,15.20
2023-04-23T15:19:12.211Z,8.10
2023-04-23T15:21:42.909Z,7.90
2023-04-23T15:24:12.998Z,6.10
2023-04-23T15:26:41.136Z,8.90
2023-04-23T15:29:12.183Z,5.80
2023-04-23T15:31:40.869Z,3.40
2023-04-23T15:34:09.627Z,8.20
2023-04-23T15:36:38.159Z,13.20
2023-04-23T15:39:06.737Z,4.30
2023-04-23T15:49:33.533Z,10.30
2023-04-23T15:52:00.714Z,11.60
2023-04-23T15:54:27.887Z,9.10
2023-04-23T15:56:57.206Z,6.40
2023-04-23T15:59:24.403Z,6.00
2023-04-23T16:01:52.494Z,5.40
2023-04-23T16:04:19.825Z,9.50
2023-04-23T16:06:47.577Z,5.50
2023-04-23T16:09:14.629Z,4.00
2023-04-23T16:11:41.814Z,9.50
2023-04-23T16:14:11.826Z,12.50
2023-04-23T16:16:39.238Z,8.90
2023-04-23T16:19:06.626Z,4.00
2023-04-23T16:21:35.497Z,5.60
2023-04-23T16:24:03.343Z,6.40
2023-04-23T16:26:31.339Z,14.40
2023-04-23T16:29:11.152Z,4.70
2023-04-23T16:31:47.142Z,2.20
2023-04-23T16:34:16.093Z,7.50
2023-04-23T16:36:43.400Z,8.10
2023-04-23T16:39:11.531Z,10.90
2023-04-23T16:41:38.937Z,7.20
2023-04-23T16:44:06.185Z,3.60
2023-04-23T16:46:33.957Z,6.30
2023-04-23T16:49:01.176Z,8.70
2023-04-23T16:51:30.264Z,5.60
2023-04-23T16:53:57.398Z,14.90
2023-04-23T16:56:27.660Z,10.50
2023-04-23T16:58:54.778Z,8.00
2023-04-23T17:01:23.015Z,16.70
2023-04-23T17:03:50.379Z,13.50
2023-04-23T17:06:28.342Z,11.30
2023-04-23T17:08:56.044Z,8.20
2023-04-23T17:11:23.474Z,18.30
2023-04-23T17:13:54.228Z,8.90
2023-04-23T17:16:21.562Z,16.10
2023-04-23T17:18:49.017Z,16.60
2023-04-23T17:21:17.410Z,15.70
2023-04-23T17:23:46.031Z,11.70
2023-04-23T17:26:13.277Z,17.00
2023-04-23T17:28:43.391Z,10.70
2023-04-23T17:31:12.697Z,12.00
2023-04-23T17:33:40.718Z,8.80
2023-04-23T17:36:08.127Z,7.00
2023-04-23T17:38:36.670Z,11.30
2023-04-23T17:41:04.207Z,16.40
2023-04-23T17:43:36.073Z,9.90
2023-04-23T17:46:04.025Z,14.00
2023-04-23T17:48:31.444Z,22.40
2023-04-23T17:50:58.920Z,10.50
2023-04-23T17:53:26.242Z,26.20
2023-04-23T17:55:58.689Z,9.40
2023-04-23T17:58:27.299Z,8.80
2023-04-23T18:00:54.581Z,13.20
2023-04-23T18:03:22.422Z,8.80
2023-04-23T18:05:50.910Z,10.00
2023-04-23T18:08:19.679Z,7.90
2023-04-23T18:10:47.017Z,17.80
2023-04-23T18:13:14.263Z,18.90
2023-04-23T18:15:47.599Z,18.30
2023-04-23T18:18:17.104Z,23.80
2023-04-23T18:20:46.439Z,17.60
2023-04-23T18:23:14.987Z,14.80
2023-04-23T18:25:42.462Z,16.40
2023-04-23T18:28:13.281Z,15.00
2023-04-23T18:30:40.565Z,22.70
2023-04-23T18:33:16.262Z,16.80
2023-04-23T18:35:47.458Z,15.70
2023-04-23T18:38:51.813Z,9.60
2023-04-23T18:41:20.087Z,23.80
2023-04-23T18:43:47.186Z,18.20
2023-04-23T18:46:14.410Z,31.00
2023-04-23T18:49:06.035Z,26.60
2023-04-23T18:51:38.925Z,25.60
2023-04-23T18:54:06.557Z,22.30
2023-04-23T18:56:37.649Z,27.20
2023-04-23T18:59:05.109Z,84.60
2023-04-23T19:01:32.923Z,61.40
2023-04-23T19:04:00.288Z,40.30
2023-04-23T19:06:28.167Z,31.00
2023-04-23T19:08:56.206Z,36.70
2023-04-23T19:11:23.505Z,24.90
2023-04-23T19:13:51.216Z,31.60
2023-04-23T19:16:19.466Z,32.90
2023-04-23T19:18:46.848Z,27.00
2023-04-23T19:21:16.450Z,31.00
2023-04-23T19:23:43.584Z,32.10
2023-04-23T19:26:10.808Z,38.40
2023-04-23T19:28:40.063Z,23.50
2023-04-23T19:31:08.307Z,43.40
2023-04-23T19:33:37.082Z,46.60
2023-04-23T19:36:04.575Z,42.70
2023-04-23T19:38:31.718Z,33.70
2023-04-23T19:40:59.047Z,27.00
2023-04-23T19:43:26.205Z,21.20
2023-04-23T19:45:53.589Z,19.50
2023-04-23T19:48:21.485Z,14.80
2023-04-23T19:50:48.987Z,18.90
2023-04-23T19:53:17.280Z,14.00
2023-04-23T19:55:45.494Z,15.90
2023-04-23T19:58:13.025Z,14.00
2023-04-23T20:00:41.665Z,20.10
2023-04-23T20:03:09.263Z,12.80
2023-04-23T20:05:37.595Z,14.50
2023-04-23T20:08:08.377Z,16.00
2023-04-23T20:10:38.408Z,17.40
2023-04-23T20:13:05.940Z,16.80
2023-04-23T20:15:33.552Z,14.70
2023-04-23T20:18:00.738Z,14.20
2023-04-23T20:20:27.909Z,14.50
2023-04-23T20:22:56.469Z,12.90
2023-04-23T20:25:25.622Z,11.20
2023-04-23T20:27:53.328Z,9.90
2023-04-23T20:30:20.821Z,13.10
2023-04-23T20:32:50.166Z,9.30
2023-04-23T20:35:17.339Z,10.70
2023-04-23T20:37:44.503Z,11.30
2023-04-23T20:40:12.201Z,12.90
2023-04-23T20:42:39.476Z,15.30
2023-04-23T20:45:08.253Z,13.00
2023-04-23T20:47:35.414Z,18.10
2023-04-23T20:50:02.986Z,12.00
2023-04-23T20:52:35.556Z,17.60
2023-04-23T20:55:07.138Z,20.60
2023-04-23T20:57:34.900Z,12.00
2023-04-23T21:00:02.185Z,16.30
2023-04-23T21:02:29.605Z,15.80
2023-04-23T21:04:56.680Z,10.90
2023-04-23T21:07:23.736Z,12.10
2023-04-23T21:09:50.971Z,16.90
2023-04-23T21:12:18.064Z,10.80
2023-04-23T21:14:45.193Z,18.30
2023-04-23T21:17:12.410Z,16.80
2023-04-23T21:19:39.611Z,20.60
2023-04-23T21:22:08.020Z,10.30
2023-04-23T21:24:35.234Z,13.90
2023-04-23T21:27:03.959Z,11.90
2023-04-23T21:29:33.197Z,17.30
2023-04-23T21:32:00.538Z,9.90
2023-04-23T21:34:29.698Z,13.20
2023-04-23T21:36:57.145Z,16.60
2023-04-23T21:39:24.391Z,20.60
2023-04-23T21:41:51.564Z,13.10
2023-04-23T21:44:18.927Z,15.70
2023-04-23T21:46:46.954Z,12.30
2023-04-23T21:49:14.072Z,9.70
2023-04-23T21:51:41.301Z,9.30
2023-04-23T21:54:09.499Z,10.50
2023-04-23T21:56:36.656Z,12.40
2023-04-23T21:59:04.192Z,15.50
2023-04-23T22:01:32.579Z,10.00
2023-04-23T22:04:01.898Z,8.70
2023-04-23T22:06:30.619Z,13.90
2023-04-23T22:08:58.041Z,9.70
2023-04-23T22:11:26.250Z,15.80
2023-04-23T22:13:53.834Z,10.00
2023-04-23T22:16:28.661Z,12.40
2023-04-23T22:18:59.432Z,29.50
2023-04-23T22:21:26.563Z,38.80
2023-04-23T22:23:53.696Z,50.10
2023-04-23T22:26:22.174Z,32.50
2023-04-23T22:28:50.383Z,35.40
2023-04-23T22:31:18.629Z,30.30
2023-04-23T22:33:45.832Z,29.40
2023-04-23T22:36:14.175Z,26.40
2023-04-23T22:38:41.517Z,23.00
2023-04-23T22:41:08.813Z,27.10
2023-04-23T22:43:35.933Z,21.80
2023-04-23T22:46:02.989Z,27.80
2023-04-23T22:48:31.018Z,25.00
2023-04-23T22:50:58.109Z,32.70
2023-04-23T22:53:26.043Z,25.20
2023-04-23T22:55:53.259Z,27.80
2023-04-23T22:58:22.432Z,22.80
2023-04-23T23:00:50.907Z,25.50
2023-04-23T23:03:19.321Z,24.20
2023-04-23T23:05:46.534Z,34.60
2023-04-23T23:08:13.730Z,32.30
2023-04-23T23:10:41.005Z,25.20
2023-04-23T23:13:09.374Z,37.50
2023-04-23T23:15:36.480Z,25.80
2023-04-23T23:18:06.187Z,24.50
2023-04-23T23:20:33.431Z,26.90
2023-04-23T23:23:00.808Z,25.10
2023-04-23T23:25:28.215Z,20.10
2023-04-23T23:27:55.391Z,26.20
2023-04-23T23:30:22.612Z,21.00
2023-04-23T23:32:49.726Z,20.40
2023-04-23T23:35:18.944Z,14.80
2023-04-23T23:37:46.769Z,15.30
2023-04-23T23:40:13.888Z,12.80
2023-04-23T23:42:40.990Z,14.60
2023-04-23T23:45:10.073Z,12.80
2023-04-23T23:47:37.378Z,17.80
2023-04-23T23:50:04.739Z,14.60
2023-04-23T23:52:32.009Z,13.10
2023-04-23T23:54:59.113Z,16.00
2023-04-23T23:57:26.270Z,14.90
2023-04-23T23:59:53.394Z,17.20
